Sedgwick Reserve, California Weather observations

Data are for 10 minute period ending at time listed.
 Day   Time   Solar   Ave.   Ave.  Ave.  Vector  Max.   Baro.   Total    
  of    of     Rad.   Air    Rel.  Wind   Wind   Wind  Press.  Precip.   
Year   Day            Temp.  Hum.  Speed  Dir.   Gust                    
2016   (PST)  Kw/m2    F      %     mph   deg.    mph    mb.     in.     
-------------------------------------------------------------------------
 182   10:50   0.94   79.8    39    5.0   138    10.2   971.0    0.00 
 182   11:00   0.95   78.0    41    5.9   189    10.2   971.0    0.00 
 182   11:10   0.95   77.3    41    5.6   194    10.4   970.9    0.00 
 182   11:20   0.96   78.5    39    5.1   200     8.8   970.9    0.00 
 182   11:30   0.94   80.9    36    5.2   137    10.7   970.8    0.00 
 182   11:40   0.98   80.3    37    5.8   211     9.6   970.8    0.00 
 182   11:50   0.98   80.9    37    5.4   224    10.2   970.7    0.00 
 182   12:00   0.98   80.9    37    5.0   226     9.2   970.6    0.00 
 182   12:10   0.98   81.7    36    7.4   214    11.8   970.5    0.00 
 182   12:20   0.98   82.0    36    6.7   202    11.7   970.3    0.00 
 182   12:30   0.98   82.5    36    7.4   217    11.3   970.2    0.00 
 182   12:40   0.97   83.5    35    7.4   193    13.1   970.2    0.00 
 182   12:50   0.96   85.5    33    7.9   183    13.5   970.1    0.00 
 182   13:00   0.96   84.5    34    8.1   234    12.9   970.1    0.00 
 182   13:10   0.95   84.4    34    9.2   257    13.5   970.0    0.00 
 182   13:20   0.94   85.1    34    9.2   263    15.3   969.9    0.00 
 182   13:30   0.93   84.1    34    9.1   253    14.5   969.9    0.00 
 182   13:40   0.92   85.2    33    9.2   252    15.9   969.8    0.00 
 182   13:50   0.91   84.1    33   10.8   251    15.9   969.7    0.00 
 182   14:00   0.89   83.6    34   11.1   244    16.7   969.7    0.00 
 182   14:10   0.87   84.7    32    9.7   254    16.0   969.7    0.00 
 182   14:20   0.85   84.5    32    9.2   250    15.1   969.6    0.00 
 182   14:30   0.83   84.1    32   11.4   251    15.6   969.5    0.00 
 182   14:40   0.81   84.8    32    8.9   260    15.5   969.4    0.00 
 182   14:50   0.79   84.1    33   10.6   251    16.3   969.4    0.00 
 182   15:00   0.77   83.8    33    9.8   250    15.6   969.3    0.00 
 182   15:10   0.74   84.5    32    8.7   269    14.2   969.1    0.00 
 182   15:20   0.72   84.1    32   10.1   260    14.9   969.0    0.00 
 182   15:30   0.69   83.7    32    9.8   260    15.2   968.9    0.00 
 182   15:40   0.66   83.7    32    9.4   260    14.2   968.8    0.00 
 182   15:50   0.63   83.9    32    9.5   257    15.9   968.8    0.00 
 182   16:00   0.60   83.1    33    9.2   254    13.7   968.7    0.00 
 182   16:10   0.57   82.9    33    8.9   267    13.1   968.6    0.00 
 182   16:20   0.54   82.3    34   10.1   254    14.7   968.5    0.00 
 182   16:30   0.50   81.3    35    9.7   261    16.9   968.4    0.00 
 182   16:40   0.47   80.9    35   10.2   270    13.4   968.4    0.00 
 182   16:50   0.44   80.3    36    9.4   270    12.5   968.4    0.00 
 182   17:00   0.40   79.6    38   10.0   265    13.5   968.3    0.00 
 182   17:10   0.37   79.0    38    9.1   261    13.7   968.3    0.00 
 182   17:20   0.33   79.2    38    7.5   267    12.3   968.3    0.00 
 182   17:30   0.30   78.2    39    8.0   265    11.5   968.3    0.00 
 182   17:40   0.27   78.1    40    7.9   256    11.8   968.3    0.00 
 182   17:50   0.23   76.6    42    8.6   256    11.1   968.3    0.00 
 182   18:00   0.20   76.1    42    7.8   261    11.8   968.3    0.00 
 182   18:10   0.17   75.4    43    7.5   264    10.4   968.4    0.00 
 182   18:20   0.14   74.8    44    6.9   259     9.2   968.4    0.00 
 182   18:30   0.11   73.8    46    7.0   259    10.2   968.4    0.00 
 182   18:40   0.08   72.6    47    7.6   258    10.7   968.5    0.00 
 182   18:50   0.06   71.3    49    6.2   263     9.1   968.4    0.00 
 182   19:00   0.03   70.1    51    5.3   257     8.2   968.4    0.00 
 182   19:10   0.01   68.8    53    3.0   220     5.8   968.5    0.00 
 182   19:20   0.00   66.7    57    4.2   138     8.6   968.5    0.00 
 182   19:30   0.00   64.1    62    5.4   126     8.9   968.4    0.00 
 182   19:40   0.00   62.4    66    5.7   123     9.9   968.3    0.00 
 182   19:50   0.00   60.8    69    5.5   122     8.0   968.3    0.00 
 182   20:00   0.00   59.7    71    4.7   119     7.7   968.4    0.00 
 182   20:10   0.00   58.8    73    4.5   117     6.8   968.5    0.00 
 182   20:20   0.00   58.0    75    4.0   119     6.5   968.6    0.00 
 182   20:30   0.00   57.4    76    2.0   106     3.8   968.6    0.00 
 182   20:40   0.00   56.7    78    2.5   106     4.2   968.7    0.00 
 182   20:50   0.00   56.1    79    2.4   105     4.2   968.9    0.00 
 182   21:00   0.00   55.7    80    2.2    78     3.1   969.0    0.00 
 182   21:10   0.00   55.2    81    2.2    84     3.0   969.0    0.00 
 182   21:20   0.00   54.8    82    2.0    47     2.9   969.1    0.00 
 182   21:30   0.00   54.4    83    1.2    95     2.6   969.1    0.00 
 182   21:40   0.00   54.1    83    1.9   124     3.3   969.2    0.00 
 182   21:50   0.00   53.8    84    2.3   122     3.7   969.3    0.00 
 182   22:00   0.00   53.3    85    3.0   132     4.5   969.3    0.00 
 182   22:10   0.00   53.0    86    3.3   126     5.5   969.4    0.00 
 182   22:20   0.00   52.5    87    2.5   108     4.5   969.5    0.00 
 182   22:30   0.00   52.0    88    2.1   105     3.9   969.5    0.00 
 182   22:40   0.00   51.7    89    1.7    95     2.9   969.4    0.00 
 182   22:50   0.00   51.4    90    1.5   120     2.7   969.4    0.00 
 182   23:00   0.00   51.2    91    1.9   113     2.5   969.5    0.00 
 182   23:10   0.00   50.8    91    2.1   112     3.2   969.4    0.00 
 182   23:20   0.00   50.6    92    1.0   125     3.0   969.3    0.00 
 182   23:30   0.00   50.5    92    0.5   116     1.8   969.3    0.00 
 182   23:40   0.00   49.8    91    1.7    42     3.1   969.3    0.00 
 182   23:50   0.00   48.8    91    2.7    11     3.7   969.4    0.00 
 183    0:00   0.00   49.4    91    0.4   284     1.4   969.4    0.00 
 183    0:10   0.00   49.2    91    0.8     8     3.0   969.5    0.00 
 183    0:20   0.00   48.8    91    0.4   335     1.5   969.4    0.00 
 183    0:30   0.00   48.7    90    0.4   292     1.6   969.4    0.00 
 183    0:40   0.00   47.8    89    2.8    12     4.1   969.4    0.00 
 183    0:50   0.00   48.1    90    1.2    21     3.5   969.4    0.00 
 183    1:00   0.00   48.2    89    0.6    42     1.5   969.4    0.00 
 183    1:10   0.00   48.2    89    0.4   230     1.6   969.3    0.00 
 183    1:20   0.00   47.9    89    1.8     4     2.6   969.3    0.00 
 183    1:30   0.00   48.1    90    0.8   327     2.0   969.2    0.00 
 183    1:40   0.00   48.5    90    0.6   225     1.8   969.2    0.00 
 183    1:50   0.00   48.7    92    1.7   259     2.5   969.3    0.00 
 183    2:00   0.00   48.8    93    1.1   332     2.4   969.4    0.00 
 183    2:10   0.00   48.1    93    1.4     4     2.6   969.4    0.00 
 183    2:20   0.00   48.1    94    1.4    11     2.3   969.4    0.00 
 183    2:30   0.00   48.1    94    0.2    11     1.1   969.5    0.00 
 183    2:40   0.00   48.1    95    0.0     0     0.0   969.6    0.00 
 183    2:50   0.00   48.0    95    0.8    13     2.8   969.7    0.00 
 183    3:00   0.00   48.0    95    3.4    18     4.5   969.5    0.00 
 183    3:10   0.00   47.5    96    1.8   352     3.5   969.5    0.00 
 183    3:20   0.00   47.3    96    1.4   249     2.3   969.5    0.00 
 183    3:30   0.00   46.7    96    1.5   349     2.6   969.7    0.00 
 183    3:40   0.00   46.7    97    2.2     5     3.1   969.6    0.00 
 183    3:50   0.00   47.0    97    1.8   292     3.4   969.6    0.00 
 183    4:00   0.00   47.3    97    1.0   321     2.2   969.8    0.00 
 183    4:10   0.00   47.4    97    1.7    26     2.3   970.0    0.00 
 183    4:20   0.00   47.2    97    2.0     4     3.4   970.1    0.00 
 183    4:30   0.00   47.3    97    1.1   344     3.4   970.1    0.00 
 183    4:40   0.00   47.1    97    2.1   314     3.1   970.2    0.00 
 183    4:50   0.00   47.4    97    1.8    25     3.7   970.4    0.00 
 183    5:00   0.00   47.3    97    2.5    19     4.2   970.4    0.00 
 183    5:10   0.00   46.9    97    2.8     4     3.5   970.4    0.00 
 183    5:20   0.01   47.1    97    2.0    22     3.5   970.4    0.00 
 183    5:30   0.02   47.5    97    0.9    15     3.0   970.5    0.00 
 183    5:40   0.04   48.1    97    0.9    28     2.0   970.5    0.00 
 183    5:50   0.06   48.7    96    2.2    20     3.7   970.6    0.00 
 183    6:00   0.07   49.1    96    2.7    21     4.7   970.6    0.00 
 183    6:10   0.08   49.7    96    1.5    37     3.5   970.6    0.00 
 183    6:20   0.08   50.4    96    0.9    24     2.6   970.5    0.00 
 183    6:30   0.08   50.3    95    1.0     2     2.2   970.6    0.00 
 183    6:40   0.12   50.3    95    1.1    11     4.2   970.5    0.00 
 183    6:50   0.16   50.6    95    1.6   247     3.1   970.5    0.00 
 183    7:00   0.27   50.7    95    2.7   221     4.6   970.5    0.00 
 183    7:10   0.38   52.6    93    2.2   233     4.5   970.5    0.00 
 183    7:20   0.40   54.4    88    2.5   175     4.4   970.5    0.00 
 183    7:30   0.43   56.0    82    1.8   206     3.4   970.4    0.00 
 183    7:40   0.47   57.9    78    1.4   149     3.5   970.4    0.00 
 183    7:50   0.50   59.2    74    1.9   239     5.3   970.6    0.00 
 183    8:00   0.53   60.2    73    2.3   202     5.3   970.6    0.00 
 183    8:10   0.56   60.5    72    2.2   259     4.5   970.7    0.00 
 183    8:20   0.59   62.9    66    1.7   155     4.7   970.8    0.00 
 183    8:30   0.62   64.1    64    3.8   156     6.0   970.8    0.00 
 183    8:40   0.65   64.9    63    4.9   140     9.1   970.9    0.00 
 183    8:50   0.67   65.9    61    4.8   141     8.2   971.0    0.00 
 183    9:00   0.70   66.0    62    4.9   202     8.7   971.0    0.00 
 183    9:10   0.73   66.2    61    5.4   214    10.6   971.1    0.00 
 183    9:20   0.76   67.9    58    5.1   237     9.3   971.2    0.00 
 183    9:30   0.78   68.9    56    5.4   234    10.8   971.3    0.00 
 183    9:40   0.80   69.2    55    5.9   238     9.9   971.4    0.00 
 183    9:50   0.82   71.3    53    4.7   250     8.5   971.5    0.00 
 183   10:00   0.85   71.2    54    5.3   232     9.6   971.4    0.00 
 183   10:10   0.87   71.7    52    5.9   253    11.2   971.4    0.00 
 183   10:20   0.89   73.0    50    5.4   204     9.1   971.3    0.00 
 183   10:30   0.90   73.0    50    5.9   238    11.0   971.4    0.00 
 183   10:40   0.91   74.5    48    5.9   224    11.2   971.4    0.00 

Return to Sedgwick Reserve graphs page.


Western Regional Climate Center,wrcc@dri.edu